createdAt,value
2023-04-03T03:47:14.178Z,701.50
2023-04-03T03:49:41.881Z,704.28
2023-04-03T03:52:11.452Z,707.25
2023-04-03T03:54:39.058Z,705.10
2023-04-03T03:57:06.092Z,713.28
2023-04-03T03:59:32.775Z,707.30
2023-04-03T04:01:59.484Z,703.47
2023-04-03T04:04:26.218Z,706.97
2023-04-03T04:06:52.918Z,716.78
2023-04-03T04:09:19.534Z,712.80
2023-04-03T04:11:46.224Z,717.92
2023-04-03T04:14:14.332Z,720.20
2023-04-03T04:16:41.114Z,718.70
2023-04-03T04:19:09.652Z,718.38
2023-04-03T04:21:36.736Z,718.22
2023-04-03T04:24:03.755Z,719.88
2023-04-03T04:26:30.467Z,718.33
2023-04-03T04:28:57.207Z,717.05
2023-04-03T04:31:24.073Z,716.00
2023-04-03T04:33:51.086Z,714.05
2023-04-03T04:36:17.813Z,725.47
2023-04-03T04:38:44.930Z,719.08
2023-04-03T04:41:11.727Z,719.60
2023-04-03T04:43:38.814Z,722.75
2023-04-03T04:46:10.367Z,723.60
2023-04-03T04:48:37.485Z,725.05
2023-04-03T04:51:04.356Z,711.55
2023-04-03T04:53:31.104Z,710.38
2023-04-03T04:55:57.855Z,707.73
2023-04-03T04:58:24.582Z,707.22
2023-04-03T05:00:51.197Z,705.95
2023-04-03T05:03:17.952Z,708.30
2023-04-03T05:05:44.670Z,705.95
2023-04-03T05:08:11.618Z,709.55
2023-04-03T05:10:38.368Z,714.28
2023-04-03T05:13:05.070Z,702.27
2023-04-03T05:15:31.755Z,704.92
2023-04-03T05:17:58.460Z,703.78
2023-04-03T05:20:25.139Z,704.38
2023-04-03T05:22:51.863Z,702.58
2023-04-03T05:25:18.689Z,702.72
2023-04-03T05:27:45.393Z,702.85
2023-04-03T05:30:12.596Z,704.83
2023-04-03T05:32:39.308Z,705.58
2023-04-03T05:35:09.806Z,711.08
2023-04-03T05:37:37.437Z,713.72
2023-04-03T05:40:06.364Z,721.00
2023-04-03T05:42:33.132Z,717.28
2023-04-03T05:45:00.033Z,724.72
2023-04-03T05:47:26.812Z,720.40
2023-04-03T05:49:53.625Z,715.75
2023-04-03T05:52:31.717Z,714.42
2023-04-03T05:54:58.746Z,709.05
2023-04-03T05:57:25.791Z,714.90
2023-04-03T05:59:52.651Z,708.00
2023-04-03T06:02:22.862Z,710.85
2023-04-03T06:04:50.030Z,710.30
2023-04-03T06:07:20.414Z,711.15
2023-04-03T06:09:47.224Z,711.70
2023-04-03T06:12:14.362Z,690.38
2023-04-03T06:14:41.084Z,693.08
2023-04-03T06:17:09.435Z,692.20
2023-04-03T06:19:37.178Z,695.70
2023-04-03T06:22:04.097Z,702.53
2023-04-03T06:24:32.142Z,701.50
2023-04-03T06:26:58.861Z,706.57
2023-04-03T06:29:25.719Z,700.33
2023-04-03T06:31:52.958Z,701.97
2023-04-03T06:34:19.715Z,702.03
2023-04-03T06:36:46.391Z,704.72
2023-04-03T06:39:23.051Z,705.13
2023-04-03T06:41:51.685Z,704.33
2023-04-03T06:44:18.749Z,711.95
2023-04-03T06:46:47.421Z,704.47
2023-04-03T06:49:14.262Z,702.92
2023-04-03T06:51:40.996Z,708.75
2023-04-03T06:54:09.193Z,705.38
2023-04-03T06:56:36.735Z,710.20
2023-04-03T06:59:03.965Z,705.13
2023-04-03T07:01:31.899Z,708.35
2023-04-03T07:03:59.134Z,710.58
2023-04-03T07:06:28.167Z,721.90
2023-04-03T07:08:55.763Z,723.55
2023-04-03T07:11:23.300Z,733.30
2023-04-03T07:13:50.509Z,734.50
2023-04-03T07:16:17.387Z,722.08
2023-04-03T07:18:44.173Z,725.45
2023-04-03T07:21:10.889Z,752.88
2023-04-03T07:23:38.060Z,756.42
2023-04-03T07:26:04.751Z,761.97
2023-04-03T07:28:31.651Z,763.15
2023-04-03T07:31:13.081Z,759.95
2023-04-03T07:33:40.344Z,760.53
2023-04-03T07:36:08.230Z,770.47
2023-04-03T07:38:36.557Z,764.50
2023-04-03T07:41:03.612Z,757.55
2023-04-03T07:43:30.671Z,748.85
2023-04-03T07:45:57.457Z,758.93
2023-04-03T07:48:27.043Z,757.50
2023-04-03T07:50:54.012Z,757.35
2023-04-03T07:53:20.929Z,746.77
2023-04-03T07:55:49.282Z,732.67
2023-04-03T07:58:18.755Z,725.70
2023-04-03T08:00:46.404Z,734.80
2023-04-03T08:03:13.912Z,748.25
2023-04-03T08:05:46.102Z,758.40
2023-04-03T08:08:15.549Z,768.72
2023-04-03T08:10:42.646Z,765.92
2023-04-03T08:13:10.732Z,770.97
2023-04-03T08:15:38.051Z,766.97
2023-04-03T08:18:04.992Z,778.30
2023-04-03T08:20:31.882Z,773.67
2023-04-03T08:22:58.579Z,781.17
2023-04-03T08:25:25.561Z,773.47
2023-04-03T08:27:52.315Z,777.63
2023-04-03T08:30:19.250Z,777.58
2023-04-03T08:32:46.102Z,780.63
2023-04-03T08:35:13.121Z,786.85
2023-04-03T08:37:41.245Z,792.88
2023-04-03T08:40:14.281Z,797.07
2023-04-03T08:42:54.796Z,802.25
2023-04-03T08:45:44.610Z,809.45
2023-04-03T08:48:27.491Z,803.25
2023-04-03T08:51:03.927Z,807.72
2023-04-03T08:53:34.690Z,812.05
2023-04-03T08:56:06.276Z,807.90
2023-04-03T08:58:49.022Z,813.20
2023-04-03T09:01:28.612Z,814.35
2023-04-03T09:03:55.546Z,809.45
2023-04-03T09:06:26.932Z,813.17
2023-04-03T09:09:14.904Z,817.42
2023-04-03T09:12:00.169Z,817.97
2023-04-03T09:14:50.555Z,811.92
2023-04-03T09:17:38.553Z,799.30
2023-04-03T09:20:14.316Z,814.87
2023-04-03T09:22:49.664Z,817.90
2023-04-03T09:25:38.301Z,813.92
2023-04-03T09:28:10.706Z,809.13
2023-04-03T09:30:39.357Z,824.55
2023-04-03T09:33:08.006Z,840.15
2023-04-03T09:35:47.543Z,838.63
2023-04-03T09:38:19.363Z,856.38
2023-04-03T09:41:18.040Z,872.88
2023-04-03T09:43:54.453Z,890.83
2023-04-03T09:46:33.299Z,902.90
2023-04-03T09:49:09.546Z,909.60
2023-04-03T09:51:37.542Z,922.45
2023-04-03T09:54:39.337Z,920.67
2023-04-03T09:57:14.063Z,921.63
2023-04-03T09:59:49.095Z,912.60
2023-04-03T10:02:30.562Z,905.75
2023-04-03T10:05:08.882Z,903.53
2023-04-03T10:07:40.196Z,909.05
2023-04-03T10:10:21.056Z,899.97
2023-04-03T10:12:48.124Z,904.40
2023-04-03T10:15:21.135Z,905.30
2023-04-03T10:18:08.740Z,897.03
2023-04-03T10:20:45.944Z,870.33
2023-04-03T10:23:21.760Z,865.97
2023-04-03T10:26:06.637Z,856.78
2023-04-03T10:28:36.056Z,854.00
2023-04-03T10:31:12.684Z,830.83
2023-04-03T10:34:00.967Z,830.90
2023-04-03T10:36:39.512Z,835.85
2023-04-03T10:39:15.052Z,824.88
2023-04-03T10:42:28.092Z,819.65
2023-04-03T10:45:21.711Z,835.63
2023-04-03T10:48:12.382Z,824.88
2023-04-03T10:50:47.348Z,832.55
2023-04-03T10:53:33.476Z,825.10
2023-04-03T10:56:13.830Z,824.40
2023-04-03T10:58:44.882Z,822.15
2023-04-03T11:01:19.825Z,820.38
2023-04-03T11:03:54.343Z,825.90
2023-04-03T11:06:24.677Z,827.47
2023-04-03T11:08:57.831Z,813.45
2023-04-03T11:11:38.182Z,825.80
2023-04-03T11:14:22.398Z,816.72
2023-04-03T11:17:01.591Z,813.65
2023-04-03T11:20:04.054Z,812.63
2023-04-03T11:22:46.175Z,815.95
2023-04-03T11:25:12.855Z,808.67
2023-04-03T11:27:48.197Z,808.88
2023-04-03T11:30:43.782Z,802.97
2023-04-03T11:33:29.963Z,810.45
2023-04-03T11:36:01.190Z,810.03
2023-04-03T11:38:37.372Z,807.40
2023-04-03T11:41:06.038Z,796.05
2023-04-03T11:43:34.170Z,799.08
2023-04-03T11:46:03.329Z,794.07
2023-04-03T11:48:30.568Z,796.83
2023-04-03T11:50:58.680Z,784.50
2023-04-03T11:53:40.155Z,785.75
2023-04-03T11:56:33.398Z,789.03
2023-04-03T11:59:12.644Z,787.13
2023-04-03T12:01:59.712Z,788.87
2023-04-03T12:04:31.850Z,802.05
2023-04-03T12:07:13.552Z,794.65
2023-04-03T12:09:43.468Z,802.65
2023-04-03T12:12:57.842Z,794.47
2023-04-03T12:15:43.843Z,794.95
2023-04-03T12:18:41.016Z,798.83
2023-04-03T12:21:07.884Z,796.83
2023-04-03T12:23:37.226Z,790.65
2023-04-03T12:26:05.855Z,781.20
2023-04-03T12:28:39.708Z,786.05
2023-04-03T12:31:10.772Z,780.22
2023-04-03T12:34:07.215Z,780.40
2023-04-03T12:37:03.541Z,784.83
2023-04-03T12:39:52.127Z,794.28
2023-04-03T12:42:38.956Z,802.28
2023-04-03T12:45:20.572Z,801.90
2023-04-03T12:47:50.401Z,798.53
2023-04-03T12:50:24.980Z,809.78
2023-04-03T12:53:03.856Z,804.92
2023-04-03T12:55:30.724Z,813.55
2023-04-03T12:57:57.390Z,813.83
2023-04-03T13:00:35.621Z,815.42
2023-04-03T13:03:05.072Z,814.67
2023-04-03T13:05:36.566Z,811.58
2023-04-03T13:08:08.682Z,817.97
2023-04-03T13:10:48.826Z,815.65
2023-04-03T13:13:16.231Z,810.37
2023-04-03T13:15:50.125Z,813.40
2023-04-03T13:18:30.689Z,813.90
2023-04-03T13:21:03.992Z,807.13
2023-04-03T13:23:32.262Z,810.22
2023-04-03T13:26:04.328Z,808.67
2023-04-03T13:28:32.708Z,800.65
2023-04-03T13:31:15.084Z,794.40
2023-04-03T13:34:11.941Z,796.00
2023-04-03T13:36:44.179Z,794.05
2023-04-03T13:39:16.802Z,800.73
2023-04-03T13:41:51.838Z,807.70
2023-04-03T13:44:24.484Z,803.58
2023-04-03T13:46:56.065Z,813.78
2023-04-03T13:49:34.338Z,809.00
2023-04-03T13:52:07.454Z,803.70
2023-04-03T13:54:39.160Z,803.30
2023-04-03T13:57:15.053Z,812.72
2023-04-03T13:59:42.554Z,811.90
2023-04-03T14:02:18.148Z,810.97
2023-04-03T14:04:44.987Z,812.05
2023-04-03T14:07:12.935Z,816.72
2023-04-03T14:09:39.875Z,813.33
2023-04-03T14:12:34.218Z,820.90
2023-04-03T14:15:03.824Z,824.70
2023-04-03T14:17:31.176Z,816.13
2023-04-03T14:19:59.256Z,814.95
2023-04-03T14:22:29.627Z,811.13
2023-04-03T14:24:57.183Z,808.42
2023-04-03T14:27:30.961Z,812.65
2023-04-03T14:29:59.931Z,818.17
2023-04-03T14:32:28.240Z,821.45
2023-04-03T14:34:56.336Z,808.80
2023-04-03T14:37:25.852Z,813.85
2023-04-03T14:39:56.728Z,815.63
2023-04-03T14:42:28.491Z,815.33
2023-04-03T14:44:55.602Z,816.45
2023-04-03T14:47:31.314Z,816.55
2023-04-03T14:50:01.309Z,807.60
2023-04-03T14:52:34.909Z,813.80
2023-04-03T14:55:03.330Z,815.88
2023-04-03T14:57:31.561Z,821.75
2023-04-03T14:59:58.841Z,838.85
2023-04-03T15:02:37.527Z,860.78
2023-04-03T15:05:07.291Z,855.90
2023-04-03T15:07:40.638Z,860.83
2023-04-03T15:10:21.046Z,853.37
2023-04-03T15:12:49.407Z,830.80
2023-04-03T15:15:17.923Z,819.90
2023-04-03T15:17:45.709Z,832.92
2023-04-03T15:20:21.696Z,826.50
2023-04-03T15:22:48.755Z,829.70
2023-04-03T15:25:15.815Z,826.80
2023-04-03T15:27:43.276Z,824.20
2023-04-03T15:30:16.110Z,821.88
2023-04-03T15:32:42.820Z,816.65
2023-04-03T15:35:09.888Z,819.70
2023-04-03T15:37:36.552Z,812.80
2023-04-03T15:40:04.127Z,813.28
2023-04-03T15:42:30.806Z,802.92
2023-04-03T15:44:57.434Z,807.20
2023-04-03T15:47:26.038Z,811.13
2023-04-03T15:49:53.585Z,810.90
2023-04-03T15:52:20.554Z,811.83
2023-04-03T15:54:47.221Z,815.95
2023-04-03T15:57:13.872Z,802.22
2023-04-03T15:59:41.404Z,805.20
2023-04-03T16:02:11.177Z,797.55
2023-04-03T16:04:37.868Z,806.70
2023-04-03T16:07:05.221Z,797.88
2023-04-03T16:09:33.758Z,798.03
2023-04-03T16:12:01.420Z,802.10
2023-04-03T16:14:29.056Z,791.20
2023-04-03T16:16:56.390Z,791.45
2023-04-03T16:19:25.146Z,777.72
2023-04-03T16:21:53.605Z,779.28
2023-04-03T16:24:20.246Z,780.80
2023-04-03T16:26:46.939Z,778.03
2023-04-03T16:29:13.617Z,779.95
2023-04-03T16:31:40.789Z,783.05
2023-04-03T16:34:07.483Z,783.53
2023-04-03T16:36:34.245Z,781.58
2023-04-03T16:39:01.154Z,783.67
2023-04-03T16:41:27.765Z,785.72
2023-04-03T16:43:54.609Z,779.60
2023-04-03T16:46:21.220Z,785.53
2023-04-03T16:48:47.972Z,779.20
2023-04-03T16:51:14.655Z,781.67
2023-04-03T16:53:41.257Z,772.83
2023-04-03T16:56:07.907Z,774.65
2023-04-03T16:58:34.638Z,767.15
2023-04-03T17:01:10.634Z,766.28
2023-04-03T17:03:37.285Z,757.80
2023-04-03T17:06:04.132Z,764.58
2023-04-03T17:08:30.786Z,759.47
2023-04-03T17:10:57.643Z,763.40
2023-04-03T17:13:24.273Z,763.92
2023-04-03T17:15:50.883Z,752.83
2023-04-03T17:18:17.521Z,753.90
2023-04-03T17:20:44.164Z,762.88
2023-04-03T17:23:10.836Z,754.08
2023-04-03T17:25:37.841Z,763.47
2023-04-03T17:28:04.633Z,755.45
2023-04-03T17:30:31.287Z,761.75
2023-04-03T17:32:57.882Z,757.92
2023-04-03T17:35:24.525Z,764.85
2023-04-03T17:37:51.225Z,751.67
2023-04-03T17:40:18.683Z,756.55
2023-04-03T17:42:45.801Z,755.83
2023-04-03T17:45:12.811Z,751.78
2023-04-03T17:47:39.668Z,751.00
2023-04-03T17:50:07.237Z,728.75
2023-04-03T17:52:33.996Z,753.13
2023-04-03T17:55:00.777Z,724.97
2023-04-03T17:57:27.468Z,739.92
2023-04-03T17:59:54.295Z,741.72
2023-04-03T18:02:21.177Z,743.75
2023-04-03T18:04:47.787Z,752.17
2023-04-03T18:07:14.474Z,742.58
2023-04-03T18:09:42.003Z,748.60
2023-04-03T18:12:09.739Z,735.95
2023-04-03T18:14:38.172Z,726.60
2023-04-03T18:17:05.144Z,731.75
2023-04-03T18:19:31.870Z,728.83
2023-04-03T18:22:03.119Z,736.05
2023-04-03T18:24:33.128Z,744.83
2023-04-03T18:27:11.361Z,738.43
2023-04-03T18:29:40.176Z,739.67
2023-04-03T18:32:09.358Z,727.33
2023-04-03T18:34:36.066Z,727.08
2023-04-03T18:37:03.212Z,725.83
2023-04-03T18:39:30.312Z,718.10
2023-04-03T18:42:00.340Z,720.47
2023-04-03T18:44:27.993Z,709.67
2023-04-03T18:46:56.506Z,707.33
2023-04-03T18:49:23.264Z,699.15
2023-04-03T18:51:49.927Z,702.20
2023-04-03T18:54:16.587Z,700.60
2023-04-03T18:56:43.209Z,701.97
2023-04-03T18:59:10.105Z,703.05
2023-04-03T19:01:37.362Z,698.37
2023-04-03T19:04:04.431Z,700.88
2023-04-03T19:06:33.246Z,700.25
2023-04-03T19:09:00.109Z,698.70
2023-04-03T19:11:29.640Z,693.50
2023-04-03T19:14:04.336Z,694.80
2023-04-03T19:16:41.032Z,699.17
2023-04-03T19:19:07.643Z,702.28
2023-04-03T19:21:38.312Z,701.78
2023-04-03T19:24:05.271Z,705.40
2023-04-03T19:26:32.005Z,708.55
2023-04-03T19:28:58.652Z,710.83
2023-04-03T19:31:25.327Z,710.92
2023-04-03T19:33:51.988Z,715.28
2023-04-03T19:36:19.046Z,711.58
2023-04-03T19:38:45.769Z,709.47
2023-04-03T19:41:17.383Z,710.47
2023-04-03T19:43:44.624Z,705.22
2023-04-03T19:46:11.555Z,705.30
2023-04-03T19:48:38.483Z,706.07
2023-04-03T19:51:06.089Z,706.67
2023-04-03T19:53:33.082Z,705.30
2023-04-03T19:56:01.011Z,706.50
2023-04-03T19:58:29.748Z,706.97
2023-04-03T20:00:57.791Z,706.38
2023-04-03T20:03:25.156Z,701.10
2023-04-03T20:05:52.044Z,699.22
2023-04-03T20:08:19.233Z,697.13
2023-04-03T20:10:46.286Z,709.60
2023-04-03T20:13:13.997Z,710.38
2023-04-03T20:15:44.708Z,709.20
2023-04-03T20:18:17.718Z,710.47
2023-04-03T20:20:56.802Z,714.13
2023-04-03T20:23:23.935Z,714.15
2023-04-03T20:26:05.801Z,711.42
2023-04-03T20:28:37.834Z,713.10
2023-04-03T20:31:04.786Z,715.63
2023-04-03T20:33:31.564Z,712.28
2023-04-03T20:35:58.596Z,713.55
2023-04-03T20:38:25.742Z,708.42
2023-04-03T20:40:52.563Z,710.40
2023-04-03T20:43:21.519Z,710.90
2023-04-03T20:45:49.248Z,712.33
2023-04-03T20:48:16.876Z,711.65
2023-04-03T20:50:45.648Z,710.97
2023-04-03T20:53:13.308Z,711.73
2023-04-03T20:55:41.108Z,714.80
2023-04-03T20:58:08.513Z,712.72
2023-04-03T21:00:37.404Z,714.13
2023-04-03T21:03:04.245Z,708.78
2023-04-03T21:05:35.318Z,710.88
2023-04-03T21:08:39.929Z,714.75
2023-04-03T21:11:44.049Z,708.35
2023-04-03T21:14:48.906Z,709.45
2023-04-03T21:17:15.538Z,707.27
2023-04-03T21:19:46.206Z,702.50
2023-04-03T21:22:13.809Z,707.53
2023-04-03T21:24:40.899Z,705.23
2023-04-03T21:27:07.973Z,710.85
2023-04-03T21:29:34.606Z,711.28
2023-04-03T21:32:01.880Z,709.58
2023-04-03T21:34:30.875Z,710.77
2023-04-03T21:37:05.394Z,705.17
2023-04-03T21:39:32.888Z,707.67
2023-04-03T21:41:59.761Z,707.50
2023-04-03T21:44:29.434Z,706.22
2023-04-03T21:46:56.149Z,703.97
2023-04-03T21:49:24.387Z,705.00
2023-04-03T21:51:52.455Z,708.90
2023-04-03T21:54:20.028Z,706.53
2023-04-03T21:56:51.461Z,703.50
2023-04-03T21:59:18.412Z,705.00
2023-04-03T22:01:45.241Z,702.90
2023-04-03T22:04:12.541Z,701.97
2023-04-03T22:06:39.315Z,701.55
2023-04-03T22:09:06.466Z,700.80
2023-04-03T22:11:33.193Z,704.63
2023-04-03T22:14:00.151Z,702.15
2023-04-03T22:16:27.454Z,701.05
2023-04-03T22:18:54.854Z,700.88
2023-04-03T22:21:22.014Z,700.65
2023-04-03T22:23:48.946Z,701.78
2023-04-03T22:26:15.606Z,701.17
2023-04-03T22:28:46.612Z,703.47
2023-04-03T22:31:15.082Z,698.95
2023-04-03T22:33:44.061Z,700.92
2023-04-03T22:36:12.364Z,707.42
2023-04-03T22:38:40.727Z,697.72
2023-04-03T22:41:08.088Z,693.20
2023-04-03T22:43:36.645Z,693.95
2023-04-03T22:46:05.427Z,684.63
2023-04-03T22:48:32.114Z,697.47
2023-04-03T22:51:02.215Z,680.47
2023-04-03T22:53:28.910Z,681.03
2023-04-03T22:56:00.258Z,680.60
2023-04-03T22:58:28.921Z,683.15
